Anderson, AL

10:30 AM CDT on July 01, 2015 (GMT -0500)
Pryor Regional | Change Station
CLOSE
Current Station
Airport
Location: Decatur,
Elevation: 591 ft
Nearby Weather Stations

Elev 591 ft 34.65 °N, 86.95 °W | Updated 23 minutes ago

Overcast
Overcast
76 °F
Feels Like 76 °F
N
9
Wind Variable Wind from SSW

Today
High -- | Low -- °F
--% Chance of Precip.
Yesterday
High -- | Low -- °F
Precip. -- in
5:38 AM 8:06 PM
Full, 100% visible
Pressure 30.04 in
Visibility 7.0 miles
Clouds Overcast 1000 ft
Dew Point 70 °F
Humidity 82%
Rainfall 0.00 in
Snow Depth Not available.
UV 2 out of 12
Pollen 2.30 out of 12
Air Quality Not available.
Flu Activity Not available.
SPECI KDCU 011507Z AUTO 21008KT 7SM OVC010 24/21 A3004 RMK AO2 T02440211

More Conditions Fewer Conditions

Pressure 30.04 in
Visibility 7.0 miles
Clouds Overcast 1000 ft
Dew Point 70 °F
Humidity 82%
Rainfall 0.00 in
Snow Depth Not available.
UV 2 out of 12
Pollen 2.30 out of 12
Air Quality Not available.
Flu Activity Not available.
SPECI KDCU 011507Z AUTO 21008KT 7SM OVC010 24/21 A3004 RMK AO2 T02440211

More Conditions Fewer Conditions

10-Day Weather Forecast

Almanac

Astronomy

Jul. 01, 2015 Rise Set
Actual Time 5:38 AM CDT 8:06 PM CDT
Civil Twilight 5:09 AM CDT 8:36 PM CDT
Nautical Twilight 4:32 AM CDT 9:12 PM CDT
Astronomical Twilight 3:52 AM CDT 9:53 PM CDT
Moon 7:41 PM CDT 5:20 AM CDT
Length of Visible Light 15h 27m
Length of Day
14h 28m
Tomorrow will be 0m 30s shorter.
Full, 100% of the Moon is Illuminated
Today
Full
Jul 1
Full
Jul 8
Last Quarter
Jul 15
New
Jul 24
First Quarter

Today's Extremes

State Highs State Lows

Community

WunderPhotos

Upload Photos

1,834,228 photos uploaded!

Nearby

Snow Depth

Station Depth Elevation
No new snow has been reported.

Earthquake Activity

City Distance Mag. Time & Date
Powells Crossroads, Tennessee 101 miles 2.6 4:06 AM CDT
2015-07-01
Eutaw, Alabama 144 miles 3.8 1:44 AM CDT
2015-06-30
Minimum magnitude displayed is 2.5.

Coastal Water Temperatures

Place Temperature
No Stations Reporting

Nearby Weather Stations